createdAt,value
2022-11-29T00:01:24.931Z,5.10
2022-11-29T00:03:52.893Z,3.80
2022-11-29T00:06:23.637Z,3.80
2022-11-29T00:08:50.854Z,3.80
2022-11-29T00:11:57.895Z,6.70
2022-11-29T00:14:26.903Z,3.70
2022-11-29T00:16:59.240Z,3.70
2022-11-29T00:19:26.364Z,3.70
2022-11-29T00:21:53.264Z,3.70
2022-11-29T00:24:20.258Z,3.70
2022-11-29T00:26:47.968Z,4.80
2022-11-29T00:29:15.384Z,3.70
2022-11-29T00:31:43.042Z,3.70
2022-11-29T00:34:11.888Z,3.70
2022-11-29T00:36:39.403Z,3.70
2022-11-29T00:39:06.743Z,3.70
2022-11-29T00:41:34.089Z,3.70
2022-11-29T00:44:01.179Z,3.70
2022-11-29T00:46:28.138Z,3.70
2022-11-29T00:48:55.081Z,3.70
2022-11-29T00:51:21.977Z,3.60
2022-11-29T00:53:48.880Z,3.60
2022-11-29T00:56:16.225Z,3.60
2022-11-29T00:58:46.236Z,3.60
2022-11-29T01:01:13.192Z,3.60
2022-11-29T01:03:40.462Z,3.60
2022-11-29T01:06:14.153Z,3.60
2022-11-29T01:08:41.429Z,3.60
2022-11-29T01:11:28.711Z,3.60
2022-11-29T01:14:00.401Z,3.60
2022-11-29T01:16:30.241Z,3.60
2022-11-29T01:18:57.321Z,3.60
2022-11-29T01:21:24.912Z,3.60
2022-11-29T01:23:53.717Z,5.80
2022-11-29T01:26:25.464Z,4.50
2022-11-29T01:28:55.154Z,3.60
2022-11-29T01:31:32.674Z,3.60
2022-11-29T01:34:02.474Z,3.60
2022-11-29T01:36:30.166Z,3.60
2022-11-29T01:38:59.986Z,3.60
2022-11-29T01:41:31.429Z,3.60
2022-11-29T01:44:28.421Z,3.60
2022-11-29T01:46:57.182Z,3.60
2022-11-29T01:49:29.240Z,3.60
2022-11-29T01:52:04.316Z,3.60
2022-11-29T01:54:35.538Z,3.60
2022-11-29T01:57:05.964Z,3.60
2022-11-29T01:59:33.818Z,5.70
2022-11-29T02:02:10.992Z,3.70
2022-11-29T02:04:38.674Z,3.70
2022-11-29T02:07:05.576Z,3.60
2022-11-29T02:09:32.456Z,3.60
2022-11-29T02:12:38.308Z,3.60
2022-11-29T02:15:42.899Z,3.60
2022-11-29T02:18:15.499Z,3.50
2022-11-29T02:21:08.002Z,3.60
2022-11-29T02:24:08.678Z,3.50
2022-11-29T02:27:06.224Z,3.50
2022-11-29T02:30:23.422Z,3.50
2022-11-29T02:33:00.508Z,3.60
2022-11-29T02:36:13.823Z,3.60
2022-11-29T02:39:20.862Z,3.50
2022-11-29T02:42:28.152Z,3.60
2022-11-29T02:45:22.496Z,3.50
2022-11-29T02:48:11.849Z,3.60
2022-11-29T02:51:19.007Z,3.50
2022-11-29T02:54:06.757Z,3.50
2022-11-29T02:56:45.263Z,3.50
2022-11-29T02:59:33.879Z,3.50
2022-11-29T03:02:12.782Z,3.40
2022-11-29T03:04:58.915Z,3.50
2022-11-29T03:07:35.854Z,3.50
2022-11-29T03:10:25.120Z,3.50
2022-11-29T03:12:53.902Z,3.50
2022-11-29T03:15:38.493Z,3.50
2022-11-29T03:18:28.013Z,3.50
2022-11-29T03:21:25.507Z,3.50
2022-11-29T03:23:59.945Z,3.50
2022-11-29T03:26:41.917Z,5.80
2022-11-29T03:29:30.048Z,3.50
2022-11-29T03:32:12.908Z,5.50
2022-11-29T03:35:09.408Z,3.50
2022-11-29T03:38:14.586Z,3.40
2022-11-29T03:41:05.106Z,3.40
2022-11-29T03:44:00.020Z,3.40
2022-11-29T03:46:46.447Z,3.50
2022-11-29T03:49:54.759Z,3.40
2022-11-29T03:52:36.075Z,3.40
2022-11-29T03:55:12.364Z,3.50
2022-11-29T03:58:44.090Z,3.50
2022-11-29T04:01:46.265Z,3.50
2022-11-29T04:04:36.100Z,3.50
2022-11-29T04:07:14.883Z,3.50
2022-11-29T04:09:55.612Z,3.50
2022-11-29T04:12:34.306Z,3.50
2022-11-29T04:15:33.263Z,3.50
2022-11-29T04:18:36.988Z,3.50
2022-11-29T04:21:31.268Z,3.50
2022-11-29T04:24:32.007Z,3.50
2022-11-29T04:27:23.315Z,3.50
2022-11-29T04:30:16.543Z,3.60
2022-11-29T04:33:20.230Z,3.50
2022-11-29T04:35:55.885Z,3.50
2022-11-29T04:38:40.675Z,3.60
2022-11-29T04:41:44.165Z,3.50
2022-11-29T04:44:40.462Z,3.50
2022-11-29T04:47:19.291Z,3.50
2022-11-29T04:50:20.685Z,3.50
2022-11-29T04:53:08.933Z,3.50
2022-11-29T04:55:41.490Z,3.50
2022-11-29T04:58:35.333Z,3.50
2022-11-29T05:01:09.983Z,3.50
2022-11-29T05:04:05.407Z,3.50
2022-11-29T05:07:12.194Z,3.50
2022-11-29T05:10:00.643Z,3.50
2022-11-29T05:12:49.147Z,3.50
2022-11-29T05:15:52.819Z,3.50
2022-11-29T05:19:28.197Z,3.50
2022-11-29T05:22:22.760Z,3.50
2022-11-29T05:25:32.845Z,3.50
2022-11-29T05:28:26.294Z,3.50
2022-11-29T05:31:53.961Z,3.50
2022-11-29T05:34:45.313Z,3.50
2022-11-29T05:37:54.392Z,3.50
2022-11-29T05:40:46.194Z,3.50
2022-11-29T05:43:59.904Z,5.70
2022-11-29T05:46:39.833Z,3.40
2022-11-29T05:49:50.568Z,3.40
2022-11-29T05:53:05.318Z,3.40
2022-11-29T05:55:41.010Z,3.50
2022-11-29T05:58:30.570Z,3.50
2022-11-29T06:01:14.485Z,3.50
2022-11-29T06:03:57.224Z,3.60
2022-11-29T06:07:00.549Z,3.50
2022-11-29T06:09:37.984Z,3.60
2022-11-29T06:12:18.186Z,3.50
2022-11-29T06:15:28.575Z,3.60
2022-11-29T06:18:37.272Z,3.50
2022-11-29T06:21:22.453Z,3.50
2022-11-29T06:24:08.899Z,3.50
2022-11-29T06:27:12.104Z,3.50
2022-11-29T06:29:52.871Z,3.50
2022-11-29T06:32:55.203Z,3.50
2022-11-29T06:35:45.837Z,3.40
2022-11-29T06:38:29.549Z,3.50
2022-11-29T06:41:02.187Z,3.50
2022-11-29T06:43:30.223Z,3.50
2022-11-29T06:46:06.283Z,3.60
2022-11-29T06:48:46.108Z,3.50
2022-11-29T06:51:33.671Z,3.50
2022-11-29T06:54:21.589Z,3.60
2022-11-29T06:57:25.185Z,3.60
2022-11-29T07:00:19.553Z,3.50
2022-11-29T07:03:24.185Z,3.60
2022-11-29T07:05:51.650Z,3.50
2022-11-29T07:08:23.123Z,3.60
2022-11-29T07:10:53.752Z,3.70
2022-11-29T07:13:21.778Z,3.70
2022-11-29T07:16:06.526Z,3.70
2022-11-29T07:18:57.833Z,3.70
2022-11-29T07:21:48.799Z,3.80
2022-11-29T07:24:45.951Z,3.80
2022-11-29T07:27:37.004Z,3.90
2022-11-29T07:30:19.955Z,4.00
2022-11-29T07:33:33.358Z,4.10
2022-11-29T07:36:37.481Z,4.10
2022-11-29T07:39:10.207Z,4.10
2022-11-29T07:41:58.760Z,4.10
2022-11-29T07:44:34.369Z,4.10
2022-11-29T07:47:01.454Z,4.10
2022-11-29T07:49:28.425Z,4.10
2022-11-29T07:51:56.145Z,4.10
2022-11-29T07:54:23.456Z,4.10
2022-11-29T07:56:50.362Z,6.80
2022-11-29T07:59:17.589Z,4.20
2022-11-29T08:01:44.526Z,4.20
2022-11-29T08:04:11.394Z,4.30
2022-11-29T08:06:38.346Z,4.30
2022-11-29T08:09:06.829Z,4.30
2022-11-29T08:11:34.283Z,4.40
2022-11-29T08:14:04.355Z,4.40
2022-11-29T08:16:32.263Z,7.00
2022-11-29T08:18:59.204Z,4.50
2022-11-29T08:21:26.256Z,4.60
2022-11-29T08:23:53.121Z,4.60
2022-11-29T08:26:24.477Z,4.70
2022-11-29T08:28:55.136Z,4.70
2022-11-29T08:31:22.064Z,4.80
2022-11-29T08:33:49.018Z,4.80
2022-11-29T08:36:20.243Z,4.90
2022-11-29T08:38:48.816Z,5.00
2022-11-29T08:41:17.270Z,7.70
2022-11-29T08:43:44.677Z,5.10
2022-11-29T08:46:18.066Z,5.20
2022-11-29T08:48:49.516Z,5.40
2022-11-29T08:51:16.870Z,5.50
2022-11-29T08:53:46.364Z,5.70
2022-11-29T08:57:04.385Z,5.80
2022-11-29T08:59:05.484Z,6.00
2022-11-29T09:01:32.533Z,6.10
2022-11-29T09:03:59.509Z,6.10
2022-11-29T09:06:29.576Z,6.10
2022-11-29T09:08:57.488Z,8.80
2022-11-29T09:11:26.731Z,6.10
2022-11-29T09:14:00.435Z,6.20
2022-11-29T09:16:30.494Z,6.20
2022-11-29T09:18:57.523Z,8.50
2022-11-29T09:21:27.193Z,6.20
2022-11-29T09:23:59.029Z,6.10
2022-11-29T09:26:30.048Z,6.00
2022-11-29T09:29:01.235Z,5.90
2022-11-29T09:31:30.531Z,5.80
2022-11-29T09:33:57.683Z,5.80
2022-11-29T09:36:28.936Z,5.80
2022-11-29T09:38:57.793Z,5.80
2022-11-29T09:42:00.796Z,5.80
2022-11-29T09:44:54.695Z,6.00
2022-11-29T09:48:04.914Z,6.20
2022-11-29T09:50:35.872Z,6.40
2022-11-29T09:53:46.167Z,6.60
2022-11-29T09:56:28.052Z,6.80
2022-11-29T09:59:37.904Z,7.00
2022-11-29T10:02:47.699Z,7.10
2022-11-29T10:05:45.089Z,7.30
2022-11-29T10:08:19.592Z,7.50
2022-11-29T10:10:49.948Z,7.60
2022-11-29T10:13:31.572Z,7.70
2022-11-29T10:16:31.693Z,7.90
2022-11-29T10:19:33.365Z,8.00
2022-11-29T10:22:14.482Z,10.90
2022-11-29T10:24:44.155Z,8.20
2022-11-29T10:27:23.736Z,8.30
2022-11-29T10:29:53.796Z,8.30
2022-11-29T10:32:23.366Z,8.40
2022-11-29T10:34:51.595Z,8.50
2022-11-29T10:37:21.567Z,8.60
2022-11-29T10:40:00.533Z,8.70
2022-11-29T10:42:47.697Z,8.70
2022-11-29T10:45:26.492Z,8.60
2022-11-29T10:47:58.103Z,8.60
2022-11-29T10:50:29.129Z,8.60
2022-11-29T10:53:05.300Z,8.60
2022-11-29T10:55:42.158Z,8.60
2022-11-29T10:58:13.972Z,10.80
2022-11-29T11:01:06.901Z,8.90
2022-11-29T11:03:42.392Z,10.80
2022-11-29T11:06:18.007Z,9.30
2022-11-29T11:08:53.360Z,9.40
2022-11-29T11:11:28.060Z,9.50
2022-11-29T11:14:06.621Z,9.60
2022-11-29T11:16:37.409Z,10.20
2022-11-29T11:19:32.337Z,10.80
2022-11-29T11:22:02.561Z,10.00
2022-11-29T11:24:32.774Z,10.00
2022-11-29T11:27:01.043Z,10.00
2022-11-29T11:29:44.200Z,10.60
2022-11-29T11:32:19.205Z,10.00
2022-11-29T11:34:58.992Z,11.30
2022-11-29T11:37:35.592Z,10.20
2022-11-29T11:40:29.753Z,10.30
2022-11-29T11:42:59.857Z,10.50
2022-11-29T11:45:35.876Z,10.60
2022-11-29T11:48:21.874Z,11.40
2022-11-29T11:50:56.395Z,10.90
2022-11-29T11:53:31.804Z,11.00
2022-11-29T11:56:10.843Z,10.90
2022-11-29T11:58:59.742Z,10.90
2022-11-29T12:01:40.070Z,10.70
2022-11-29T12:04:34.097Z,10.60
2022-11-29T12:07:04.217Z,10.50
2022-11-29T12:09:52.980Z,11.80
2022-11-29T12:12:30.729Z,10.10
2022-11-29T12:15:22.708Z,10.00
2022-11-29T12:18:01.156Z,10.00
2022-11-29T12:20:51.762Z,10.00
2022-11-29T12:23:52.624Z,9.90
2022-11-29T12:29:20.020Z,9.80
2022-11-29T12:32:26.692Z,9.90
2022-11-29T12:35:30.677Z,10.10
2022-11-29T12:38:17.539Z,9.90
2022-11-29T12:41:11.731Z,10.00
2022-11-29T12:44:03.299Z,10.80
2022-11-29T12:46:30.758Z,10.20
2022-11-29T12:49:35.665Z,10.20
2022-11-29T12:52:39.100Z,10.30
2022-11-29T12:55:30.305Z,10.20
2022-11-29T12:58:22.050Z,10.20
2022-11-29T13:01:17.036Z,10.00
2022-11-29T13:04:20.618Z,9.90
2022-11-29T13:07:10.999Z,9.70
2022-11-29T13:09:51.575Z,9.60
2022-11-29T13:12:51.748Z,9.60
2022-11-29T13:15:42.827Z,9.50
2022-11-29T13:18:36.595Z,10.00
2022-11-29T13:21:24.117Z,9.50
2022-11-29T13:24:08.507Z,9.40
2022-11-29T13:26:38.813Z,9.40
2022-11-29T13:29:07.869Z,9.30
2022-11-29T13:31:35.323Z,9.20
2022-11-29T13:34:15.825Z,9.10
2022-11-29T13:37:31.690Z,9.00
2022-11-29T13:40:17.843Z,8.90
2022-11-29T13:42:57.865Z,9.30
2022-11-29T13:46:16.500Z,8.60
2022-11-29T13:48:50.366Z,8.50
2022-11-29T13:51:30.948Z,8.40
2022-11-29T13:54:03.191Z,8.20
2022-11-29T13:56:48.149Z,8.10
2022-11-29T13:59:27.740Z,8.00
2022-11-29T14:01:55.130Z,7.90
2022-11-29T14:04:27.473Z,7.80
2022-11-29T14:07:18.692Z,7.70
2022-11-29T14:10:28.594Z,7.60
2022-11-29T14:12:57.513Z,7.60
2022-11-29T14:15:32.597Z,7.50
2022-11-29T14:18:03.198Z,8.50
2022-11-29T14:20:30.032Z,9.60
2022-11-29T14:23:05.965Z,7.20
2022-11-29T14:25:51.075Z,7.20
2022-11-29T14:28:21.751Z,7.10
2022-11-29T14:30:52.252Z,7.00
2022-11-29T14:33:46.692Z,7.00
2022-11-29T14:37:04.227Z,6.90
2022-11-29T14:39:48.133Z,6.90
2022-11-29T14:42:19.673Z,6.90
2022-11-29T14:45:06.281Z,6.80
2022-11-29T14:47:38.969Z,6.80
2022-11-29T14:50:09.418Z,6.70
2022-11-29T14:52:40.715Z,6.60
2022-11-29T14:55:16.652Z,6.50
2022-11-29T14:58:02.129Z,6.50
2022-11-29T15:00:37.959Z,6.20
2022-11-29T15:03:14.098Z,6.10
2022-11-29T15:06:13.528Z,6.10
2022-11-29T15:09:05.272Z,6.00
2022-11-29T15:11:56.434Z,5.90
2022-11-29T15:15:08.069Z,5.70
2022-11-29T15:18:02.679Z,5.60
2022-11-29T15:21:03.498Z,5.50
2022-11-29T15:23:43.829Z,5.40
2022-11-29T15:26:19.337Z,5.30
2022-11-29T15:28:46.544Z,5.20
2022-11-29T15:31:20.397Z,5.20
2022-11-29T15:33:49.409Z,5.10
2022-11-29T15:36:21.406Z,5.00
2022-11-29T15:38:55.189Z,5.00
2022-11-29T15:41:29.223Z,4.90
2022-11-29T15:44:02.694Z,4.80
2022-11-29T15:46:35.033Z,4.80
2022-11-29T15:49:22.854Z,4.80
2022-11-29T15:52:07.656Z,4.60
2022-11-29T15:54:44.868Z,4.50
2022-11-29T15:57:14.600Z,4.40
2022-11-29T15:59:48.694Z,7.00
2022-11-29T16:02:34.919Z,4.30
2022-11-29T16:05:15.259Z,4.20
2022-11-29T16:07:43.873Z,4.20
2022-11-29T16:10:43.625Z,4.10
2022-11-29T16:13:25.761Z,4.10
2022-11-29T16:16:22.349Z,4.00
2022-11-29T16:18:50.939Z,4.00
2022-11-29T16:21:30.507Z,4.00
2022-11-29T16:23:58.679Z,3.90
2022-11-29T16:26:34.105Z,7.00
2022-11-29T16:29:01.517Z,3.90
2022-11-29T16:31:38.466Z,3.90
2022-11-29T16:34:31.286Z,3.80
2022-11-29T16:37:07.916Z,3.80
2022-11-29T16:39:37.898Z,3.60
2022-11-29T16:42:29.056Z,3.60
2022-11-29T16:45:01.788Z,3.50
2022-11-29T16:47:52.825Z,3.50
2022-11-29T16:50:22.478Z,3.50
2022-11-29T16:52:54.819Z,3.30
2022-11-29T16:55:23.746Z,3.40
2022-11-29T16:57:52.033Z,3.40
2022-11-29T17:00:28.896Z,3.40
2022-11-29T17:02:55.952Z,3.30
2022-11-29T17:05:22.955Z,3.20
2022-11-29T17:07:51.477Z,3.30
2022-11-29T17:10:23.401Z,3.20
2022-11-29T17:12:50.448Z,3.20
2022-11-29T17:15:17.529Z,3.00
2022-11-29T17:17:44.457Z,2.90
2022-11-29T17:20:13.049Z,2.90
2022-11-29T17:22:40.664Z,2.80
2022-11-29T17:25:08.133Z,2.80
2022-11-29T17:27:36.374Z,2.70
2022-11-29T17:30:05.541Z,2.70
2022-11-29T17:32:38.149Z,2.60
2022-11-29T17:35:05.479Z,2.60
2022-11-29T17:39:59.762Z,2.60
2022-11-29T17:42:26.683Z,2.60
2022-11-29T17:44:53.573Z,2.50
2022-11-29T17:47:20.503Z,2.40
2022-11-29T17:52:15.379Z,2.40
2022-11-29T17:54:42.435Z,2.40
2022-11-29T17:57:09.398Z,2.30
2022-11-29T18:02:04.178Z,2.30
2022-11-29T18:04:31.185Z,2.30
2022-11-29T18:09:25.545Z,2.30
2022-11-29T18:11:52.649Z,2.30
2022-11-29T18:14:24.090Z,2.40
2022-11-29T18:16:51.674Z,2.40
2022-11-29T18:19:21.632Z,2.30
2022-11-29T18:21:49.548Z,2.30
2022-11-29T18:24:17.213Z,2.30
2022-11-29T18:26:44.527Z,2.10
2022-11-29T18:29:11.881Z,2.20
2022-11-29T18:31:42.665Z,2.10
2022-11-29T18:34:11.262Z,2.20
2022-11-29T18:36:45.086Z,2.10
2022-11-29T18:39:15.593Z,2.20
2022-11-29T18:41:45.120Z,2.10
2022-11-29T18:44:15.074Z,2.10
2022-11-29T18:46:44.316Z,2.20
2022-11-29T18:49:17.142Z,2.10
2022-11-29T18:51:45.789Z,2.10
2022-11-29T18:54:14.034Z,2.00
2022-11-29T18:56:40.962Z,2.00
2022-11-29T18:59:17.149Z,2.30
2022-11-29T19:01:47.480Z,2.00
2022-11-29T19:04:20.484Z,1.80
2022-11-29T19:06:47.668Z,1.90
2022-11-29T19:09:22.084Z,1.90
2022-11-29T19:14:18.018Z,1.90
2022-11-29T19:16:47.364Z,1.90
2022-11-29T19:19:14.301Z,1.90
2022-11-29T19:21:41.959Z,1.90
2022-11-29T19:24:14.555Z,1.80
2022-11-29T19:26:44.473Z,1.80
2022-11-29T19:29:15.758Z,1.80
2022-11-29T19:31:43.148Z,1.60
2022-11-29T19:34:10.594Z,1.70
2022-11-29T19:36:42.611Z,1.50
2022-11-29T19:39:11.634Z,1.50
2022-11-29T19:41:38.704Z,1.40
2022-11-29T19:44:08.024Z,1.40
2022-11-29T19:46:42.090Z,1.30
2022-11-29T19:49:10.156Z,1.30
2022-11-29T19:51:37.851Z,1.20
2022-11-29T19:54:07.757Z,1.20
2022-11-29T20:01:39.713Z,1.30
2022-11-29T20:04:08.579Z,1.20
2022-11-29T20:11:30.595Z,1.20
2022-11-29T20:14:06.132Z,1.20
2022-11-29T20:21:31.978Z,1.20
2022-11-29T20:24:02.634Z,1.20
2022-11-29T20:26:32.897Z,1.20
2022-11-29T20:37:07.512Z,1.10
2022-11-29T20:40:08.123Z,1.10
2022-11-29T20:45:25.931Z,1.00
2022-11-29T20:48:18.078Z,0.90
2022-11-29T20:50:54.086Z,1.00
2022-11-29T20:53:40.765Z,0.90
2022-11-29T20:56:09.612Z,0.80
2022-11-29T21:01:04.824Z,0.70
2022-11-29T21:03:31.903Z,0.70
2022-11-29T21:06:03.451Z,0.60
2022-11-29T21:08:30.497Z,0.60
2022-11-29T21:11:10.360Z,0.60
2022-11-29T21:13:38.078Z,0.50
2022-11-29T21:16:05.685Z,0.50
2022-11-29T21:18:33.887Z,0.60
2022-11-29T21:21:44.603Z,0.60
2022-11-29T21:24:26.901Z,0.60
2022-11-29T21:26:53.946Z,0.50
2022-11-29T21:29:23.262Z,0.60
2022-11-29T21:31:53.613Z,0.50
2022-11-29T21:34:21.773Z,0.40
2022-11-29T21:36:59.027Z,0.50
2022-11-29T21:39:33.117Z,0.40
2022-11-29T21:42:00.024Z,0.30
2022-11-29T21:44:26.992Z,0.40
2022-11-29T21:49:21.178Z,0.40
2022-11-29T21:56:42.667Z,0.40
2022-11-29T21:59:09.577Z,0.40
2022-11-29T22:14:13.691Z,0.50
2022-11-29T22:16:58.894Z,0.50
2022-11-29T22:19:35.028Z,0.50
2022-11-29T22:22:05.399Z,0.50
2022-11-29T22:24:35.628Z,0.40
2022-11-29T22:27:03.357Z,0.40
2022-11-29T22:34:27.464Z,0.30
2022-11-29T22:36:55.095Z,0.20
2022-11-29T22:39:22.340Z,0.20
2022-11-29T22:49:17.452Z,0.20
2022-11-29T22:54:15.250Z,0.20
2022-11-29T22:56:44.231Z,0.30
2022-11-29T22:59:11.282Z,0.30
2022-11-29T23:01:40.780Z,0.20
2022-11-29T23:04:09.487Z,0.20
2022-11-29T23:06:41.896Z,0.30
2022-11-29T23:09:22.120Z,0.40
2022-11-29T23:11:56.087Z,0.30
2022-11-29T23:16:51.066Z,0.20
2022-11-29T23:24:15.334Z,0.30
2022-11-29T23:26:46.058Z,0.30
2022-11-29T23:29:17.031Z,0.30
2022-11-29T23:31:44.133Z,0.30
2022-11-29T23:36:38.383Z,0.30
2022-11-29T23:39:06.646Z,0.30
2022-11-29T23:41:35.573Z,0.20
2022-11-29T23:44:06.811Z,0.30
2022-11-29T23:46:35.093Z,0.30
2022-11-29T23:56:24.244Z,0.20
